Time;durP1;ratioP1;P1;durP2;ratioP2;P2;SDS_P1;SDS_P2;PMS_P1;PMS_P2;Temp;Humidity;BMP_temperature;BMP_pressure;BME280_temperature;BME280_humidity;BME280_pressure;Samples;Min_cycle;Max_cycle;Signal;HPM_P1;HPM_P2
2021/12/17 00:00:03;;;;;;;;;;;8.60;99.90;;;;;;4989229;28;20289;-85
2021/12/17 00:05:42;;;;;;;;;;;8.60;99.90;;;;;;4930873;28;19939;-85
2021/12/17 00:08:07;;;;;;;;;;;8.60;99.90;;;;;;4986964;28;19925;-85
2021/12/17 00:10:33;;;;;;;;;;;8.60;99.90;;;;;;5013553;28;20017;-85
2021/12/17 00:12:58;;;;;;;;;;;8.60;99.90;;;;;;4995208;28;19926;-85
2021/12/17 00:15:24;;;;;;;;;;;8.60;99.90;;;;;;5007220;28;19932;-85
2021/12/17 00:17:57;;;;;;;;;;;8.60;99.90;;;;;;4984022;28;20223;-86
2021/12/17 00:53:15;;;;;;;;;;;8.60;99.90;;;;;;4993630;28;19932;-84
2021/12/17 00:55:40;;;;;;;;;;;8.50;99.90;;;;;;4979237;28;19926;-84
2021/12/17 00:58:06;;;;;;;;;;;8.60;99.90;;;;;;5012368;28;19979;-85
2021/12/17 01:00:31;;;;;;;;;;;8.70;99.90;;;;;;4979617;28;19929;-84
2021/12/17 01:02:57;;;;;;;;;;;8.60;99.90;;;;;;4978939;28;19932;-84
2021/12/17 01:05:24;;;;;;;;;;;8.60;99.90;;;;;;4979294;28;19929;-84
2021/12/17 01:07:51;;;;;;;;;;;8.50;99.90;;;;;;4978631;28;19975;-84
2021/12/17 01:10:19;;;;;;;;;;;8.60;99.90;;;;;;4962562;28;20016;-85
2021/12/17 01:12:44;;;;;;;;;;;8.60;99.90;;;;;;4989699;28;19926;-85
2021/12/17 01:15:10;;;;;;;;;;;8.50;99.90;;;;;;4991898;28;19930;-85
2021/12/17 01:17:40;;;;;;;;;;;8.50;99.90;;;;;;4992161;28;20012;-85
2021/12/17 01:25:23;;;;;;;;;;;8.50;99.90;;;;;;4991076;28;19926;-84
2021/12/17 01:36:02;;;;;;;;;;;8.50;99.90;;;;;;4984633;28;19931;-85
2021/12/17 01:43:48;;;;;;;;;;;8.50;99.90;;;;;;4984983;28;19933;-84
2021/12/17 01:46:19;;;;;;;;;;;8.50;99.90;;;;;;4963512;28;20096;-84
2021/12/17 01:48:57;;;;;;;;;;;8.50;99.90;;;;;;4979352;28;20369;-84
2021/12/17 01:56:56;;;;;;;;;;;8.50;99.90;;;;;;4981580;28;20282;-84
2021/12/17 02:01:48;;;;;;;;;;;8.50;99.90;;;;;;4983082;28;19997;-84
2021/12/17 02:04:14;;;;;;;;;;;8.50;99.90;;;;;;4994408;28;19929;-84
2021/12/17 02:06:39;;;;;;;;;;;8.40;99.90;;;;;;4978208;28;19948;-84
2021/12/17 02:10:04;;;;;;;;;;;8.40;99.90;;;;;;4978221;28;19941;-84
2021/12/17 02:20:10;;;;;;;;;;;8.50;99.90;;;;;;4979786;28;19932;-84
2021/12/17 02:33:14;;;;;;;;;;;8.50;99.90;;;;;;4997400;28;19955;-84
2021/12/17 02:35:45;;;;;;;;;;;8.50;99.90;;;;;;4996917;28;19932;-84
2021/12/17 02:38:12;;;;;;;;;;;8.50;99.90;;;;;;4997309;28;19949;-84
2021/12/17 02:45:48;;;;;;;;;;;8.40;99.90;;;;;;4981452;28;20298;-85
2021/12/17 02:48:15;;;;;;;;;;;8.50;99.90;;;;;;4997115;28;20362;-85
2021/12/17 02:50:51;;;;;;;;;;;8.50;99.90;;;;;;4981288;28;19973;-85
2021/12/17 02:53:17;;;;;;;;;;;8.50;99.90;;;;;;4980554;28;19926;-85
2021/12/17 02:55:45;;;;;;;;;;;8.50;99.90;;;;;;4981255;28;19932;-85
2021/12/17 02:58:10;;;;;;;;;;;8.50;99.90;;;;;;4980742;28;19930;-85
2021/12/17 03:00:38;;;;;;;;;;;8.50;99.90;;;;;;4981063;28;20291;-85
2021/12/17 03:03:03;;;;;;;;;;;8.50;99.90;;;;;;4964471;28;19926;-84
2021/12/17 03:05:29;;;;;;;;;;;8.50;99.90;;;;;;4980793;28;20012;-85
2021/12/17 03:07:55;;;;;;;;;;;8.50;99.90;;;;;;4997397;28;19925;-85
2021/12/17 03:10:20;;;;;;;;;;;8.50;99.90;;;;;;4968967;28;19926;-84
2021/12/17 03:12:53;;;;;;;;;;;8.50;99.90;;;;;;4966975;28;20390;-85
2021/12/17 03:15:31;;;;;;;;;;;8.50;99.90;;;;;;4980496;28;20382;-85
2021/12/17 03:23:39;;;;;;;;;;;8.40;99.90;;;;;;4996905;28;19925;-84
2021/12/17 03:26:08;;;;;;;;;;;8.40;99.90;;;;;;4979995;28;19926;-85
2021/12/17 03:28:34;;;;;;;;;;;8.40;99.90;;;;;;4996837;28;20019;-84
2021/12/17 03:31:00;;;;;;;;;;;8.40;99.90;;;;;;4964484;28;20352;-85
2021/12/17 03:33:25;;;;;;;;;;;8.40;99.90;;;;;;4996372;28;19932;-85
2021/12/17 03:35:51;;;;;;;;;;;8.30;99.90;;;;;;5014003;28;19932;-85
2021/12/17 03:38:16;;;;;;;;;;;8.30;99.90;;;;;;4995976;28;20309;-85
2021/12/17 03:40:43;;;;;;;;;;;8.40;99.90;;;;;;4996765;28;20285;-85
2021/12/17 03:43:13;;;;;;;;;;;8.40;99.90;;;;;;4979122;28;19932;-84
2021/12/17 03:45:39;;;;;;;;;;;8.40;99.90;;;;;;4980431;28;19925;-85
2021/12/17 03:48:05;;;;;;;;;;;8.40;99.90;;;;;;4979938;28;20020;-85
2021/12/17 03:50:35;;;;;;;;;;;8.40;99.90;;;;;;4996063;28;20023;-85
2021/12/17 03:53:01;;;;;;;;;;;8.40;99.90;;;;;;4995830;28;19926;-85
2021/12/17 03:55:27;;;;;;;;;;;8.40;99.90;;;;;;4996049;28;19925;-84
2021/12/17 03:57:52;;;;;;;;;;;8.40;99.90;;;;;;4996240;28;19967;-85
2021/12/17 04:00:18;;;;;;;;;;;8.40;99.90;;;;;;4976712;28;19968;-84
2021/12/17 04:02:44;;;;;;;;;;;8.50;99.90;;;;;;4976807;28;20370;-84
2021/12/17 04:05:09;;;;;;;;;;;8.40;99.90;;;;;;4944739;28;20406;-85
2021/12/17 04:07:35;;;;;;;;;;;8.40;99.90;;;;;;4975645;28;19926;-85
2021/12/17 04:10:00;;;;;;;;;;;8.40;99.90;;;;;;4976737;28;19926;-84
2021/12/17 04:15:30;;;;;;;;;;;8.40;99.90;;;;;;4982652;28;19932;-84
2021/12/17 04:17:57;;;;;;;;;;;8.30;99.90;;;;;;4995461;28;20333;-85
2021/12/17 04:20:23;;;;;;;;;;;8.40;99.90;;;;;;4995511;28;20296;-84
2021/12/17 04:22:49;;;;;;;;;;;8.40;99.90;;;;;;4995835;28;19925;-85
2021/12/17 04:25:14;;;;;;;;;;;8.40;99.90;;;;;;5012842;28;19948;-84
2021/12/17 04:27:40;;;;;;;;;;;8.40;99.90;;;;;;4979663;28;19941;-84
2021/12/17 04:30:05;;;;;;;;;;;8.40;99.90;;;;;;4995703;28;19933;-84
2021/12/17 04:32:31;;;;;;;;;;;8.40;99.90;;;;;;4978793;28;19940;-84
2021/12/17 04:34:56;;;;;;;;;;;8.40;99.90;;;;;;5012271;28;19929;-85
2021/12/17 04:37:22;;;;;;;;;;;8.40;99.90;;;;;;4995514;28;20274;-84
2021/12/17 04:39:48;;;;;;;;;;;8.30;99.90;;;;;;4995617;28;20056;-84
2021/12/17 04:42:30;;;;;;;;;;;8.30;99.90;;;;;;4995646;28;19976;-84
2021/12/17 04:44:58;;;;;;;;;;;8.30;99.90;;;;;;4995917;28;19932;-84
2021/12/17 04:58:20;;;;;;;;;;;8.20;99.90;;;;;;4995306;28;19932;-84
2021/12/17 05:00:46;;;;;;;;;;;8.30;99.90;;;;;;4979438;28;19925;-84
2021/12/17 05:03:11;;;;;;;;;;;8.20;99.90;;;;;;4995430;28;20421;-84
2021/12/17 05:05:37;;;;;;;;;;;8.20;99.90;;;;;;4982513;28;20028;-84
2021/12/17 05:08:08;;;;;;;;;;;8.20;99.90;;;;;;4982186;28;20301;-84
2021/12/17 05:21:14;;;;;;;;;;;8.20;99.90;;;;;;4979826;28;19926;-84
2021/12/17 05:23:43;;;;;;;;;;;8.20;99.90;;;;;;4979332;28;19926;-84
2021/12/17 05:26:12;;;;;;;;;;;8.20;99.90;;;;;;5002646;28;20009;-84
2021/12/17 05:28:38;;;;;;;;;;;8.20;99.90;;;;;;5011660;28;20282;-84
2021/12/17 05:31:03;;;;;;;;;;;8.20;99.90;;;;;;4995608;28;19926;-84
2021/12/17 05:33:29;;;;;;;;;;;8.20;99.90;;;;;;4978888;28;19991;-84
2021/12/17 05:35:55;;;;;;;;;;;8.20;99.90;;;;;;4979471;28;19926;-84
2021/12/17 05:38:21;;;;;;;;;;;8.20;99.90;;;;;;5011909;28;20298;-85
2021/12/17 05:40:46;;;;;;;;;;;8.20;99.90;;;;;;4978841;28;19926;-84
2021/12/17 05:43:13;;;;;;;;;;;8.20;99.90;;;;;;4989751;28;19953;-92
2021/12/17 05:48:14;;;;;;;;;;;8.20;99.90;;;;;;4999628;28;19926;-91
2021/12/17 05:50:40;;;;;;;;;;;8.20;99.90;;;;;;4998725;28;20020;-92
2021/12/17 05:53:09;;;;;;;;;;;8.20;99.90;;;;;;4966622;28;19925;-91
2021/12/17 05:55:34;;;;;;;;;;;8.20;99.90;;;;;;4966722;28;19929;-85
2021/12/17 05:58:00;;;;;;;;;;;8.30;99.90;;;;;;4965960;28;19932;-85
2021/12/17 06:00:29;;;;;;;;;;;8.20;99.90;;;;;;4981457;28;19969;-84
2021/12/17 06:02:55;;;;;;;;;;;8.30;99.90;;;;;;4994657;28;19933;-84
2021/12/17 06:05:22;;;;;;;;;;;8.30;99.90;;;;;;4997886;28;20297;-84
2021/12/17 06:07:48;;;;;;;;;;;8.30;99.90;;;;;;5015363;28;20270;-84
2021/12/17 06:10:14;;;;;;;;;;;8.30;99.90;;;;;;4983987;28;19932;-85
2021/12/17 06:12:39;;;;;;;;;;;8.40;99.90;;;;;;4966762;28;20374;-85
2021/12/17 06:15:05;;;;;;;;;;;8.30;99.90;;;;;;4981345;28;20024;-84
2021/12/17 06:17:31;;;;;;;;;;;8.30;99.90;;;;;;4990275;28;19941;-84
2021/12/17 06:19:57;;;;;;;;;;;8.30;99.90;;;;;;4997488;28;20305;-85
2021/12/17 06:22:22;;;;;;;;;;;8.20;99.90;;;;;;4997316;28;19929;-85
2021/12/17 06:24:48;;;;;;;;;;;8.30;99.90;;;;;;4995513;28;20182;-83
2021/12/17 06:27:14;;;;;;;;;;;8.20;99.90;;;;;;4988454;28;19933;-85
2021/12/17 06:29:40;;;;;;;;;;;8.30;99.90;;;;;;4952709;28;19930;-84
2021/12/17 06:32:06;;;;;;;;;;;8.30;99.90;;;;;;4965329;28;20461;-85
2021/12/17 06:34:31;;;;;;;;;;;8.30;99.90;;;;;;4969300;28;19952;-85
2021/12/17 06:36:57;;;;;;;;;;;8.30;99.90;;;;;;4977378;28;19930;-85
2021/12/17 06:39:24;;;;;;;;;;;8.30;99.90;;;;;;4969234;28;19992;-86
2021/12/17 06:41:49;;;;;;;;;;;8.30;99.90;;;;;;4972889;28;19925;-85
2021/12/17 06:44:19;;;;;;;;;;;8.30;99.90;;;;;;4963247;28;20255;-85
2021/12/17 06:49:30;;;;;;;;;;;8.20;99.90;;;;;;4982555;28;19930;-85
2021/12/17 07:10:43;;;;;;;;;;;8.20;99.90;;;;;;4996942;28;19976;-85
2021/12/17 07:34:44;;;;;;;;;;;8.10;99.90;;;;;;4983125;28;19999;-86
2021/12/17 07:39:38;;;;;;;;;;;8.10;99.90;;;;;;4979904;28;19925;-85
2021/12/17 07:42:04;;;;;;;;;;;8.10;99.90;;;;;;5013589;28;19948;-85
2021/12/17 07:44:29;;;;;;;;;;;8.10;99.90;;;;;;4996286;28;19976;-86
2021/12/17 07:46:55;;;;;;;;;;;8.10;99.90;;;;;;4963583;28;20083;-85
2021/12/17 07:49:21;;;;;;;;;;;8.10;99.90;;;;;;4996130;28;20021;-85
2021/12/17 07:51:46;;;;;;;;;;;8.10;99.90;;;;;;4995657;28;20020;-84
2021/12/17 07:54:12;;;;;;;;;;;8.20;99.90;;;;;;5013352;28;19949;-84
2021/12/17 07:56:38;;;;;;;;;;;8.10;99.90;;;;;;4996153;28;20365;-85
2021/12/17 07:59:04;;;;;;;;;;;8.10;99.90;;;;;;4995358;28;19925;-85
2021/12/17 08:01:29;;;;;;;;;;;8.10;99.90;;;;;;4979887;28;19969;-85
2021/12/17 08:03:55;;;;;;;;;;;8.10;99.90;;;;;;4962786;28;20027;-85
2021/12/17 08:06:21;;;;;;;;;;;8.10;99.90;;;;;;4995311;28;19980;-85
2021/12/17 08:08:46;;;;;;;;;;;8.20;99.90;;;;;;4979218;28;19933;-85
2021/12/17 08:11:12;;;;;;;;;;;8.20;99.90;;;;;;5013027;28;19929;-85
2021/12/17 08:13:37;;;;;;;;;;;8.10;99.90;;;;;;4979616;28;20370;-85
2021/12/17 08:16:17;;;;;;;;;;;8.10;99.90;;;;;;4995133;28;20350;-85
2021/12/17 08:31:30;;;;;;;;;;;8.20;99.90;;;;;;4996149;28;19925;-90
2021/12/17 08:33:56;;;;;;;;;;;8.20;99.90;;;;;;4995389;28;19933;-87
2021/12/17 08:36:22;;;;;;;;;;;8.30;99.90;;;;;;4995791;28;19929;-86
2021/12/17 08:38:49;;;;;;;;;;;8.30;99.90;;;;;;4996427;28;19964;-86
2021/12/17 08:41:19;;;;;;;;;;;8.30;99.90;;;;;;4967801;28;20286;-87
2021/12/17 08:43:45;;;;;;;;;;;8.20;99.90;;;;;;4999647;28;19926;-86
2021/12/17 08:46:10;;;;;;;;;;;8.30;99.90;;;;;;4999643;28;19926;-88
2021/12/17 08:48:36;;;;;;;;;;;8.30;99.90;;;;;;4999821;28;19980;-87
2021/12/17 08:51:11;;;;;;;;;;;8.30;99.90;;;;;;4966903;28;20677;-87
2021/12/17 08:53:36;;;;;;;;;;;8.30;99.90;;;;;;4983278;28;19929;-87
2021/12/17 08:56:02;;;;;;;;;;;8.40;99.90;;;;;;4999238;28;20266;-87
2021/12/17 08:58:32;;;;;;;;;;;8.40;99.90;;;;;;4983616;28;19926;-88
2021/12/17 09:00:57;;;;;;;;;;;8.40;99.90;;;;;;4982996;28;19926;-87
2021/12/17 09:03:23;;;;;;;;;;;8.40;99.90;;;;;;4999221;28;19926;-87
2021/12/17 09:05:49;;;;;;;;;;;8.40;99.90;;;;;;4999862;28;20385;-88
2021/12/17 09:08:14;;;;;;;;;;;8.40;99.90;;;;;;4982540;28;19925;-88
2021/12/17 09:10:41;;;;;;;;;;;8.50;99.90;;;;;;4998966;28;19925;-89
2021/12/17 09:13:07;;;;;;;;;;;8.50;99.90;;;;;;4966482;28;19929;-88
2021/12/17 09:15:35;;;;;;;;;;;8.50;99.90;;;;;;4998887;28;19926;-88
2021/12/17 09:18:00;;;;;;;;;;;8.50;99.90;;;;;;4982630;28;20023;-89
2021/12/17 09:20:26;;;;;;;;;;;8.50;99.90;;;;;;4982775;28;19991;-89
2021/12/17 09:22:52;;;;;;;;;;;8.60;99.90;;;;;;4966118;28;20315;-88
2021/12/17 09:25:18;;;;;;;;;;;8.50;99.90;;;;;;4966668;28;20362;-89
2021/12/17 09:27:46;;;;;;;;;;;8.60;99.90;;;;;;4998921;28;19930;-89
2021/12/17 09:30:15;;;;;;;;;;;8.60;99.90;;;;;;4982274;28;20012;-89
2021/12/17 09:32:41;;;;;;;;;;;8.60;99.90;;;;;;4966620;28;19925;-88
2021/12/17 09:35:09;;;;;;;;;;;8.60;99.90;;;;;;4966053;28;19933;-89
2021/12/17 09:37:35;;;;;;;;;;;8.60;99.90;;;;;;4982715;28;20089;-88
2021/12/17 09:40:06;;;;;;;;;;;8.60;99.90;;;;;;4982278;28;19998;-89
2021/12/17 09:42:32;;;;;;;;;;;8.70;99.90;;;;;;4982839;28;20063;-89
2021/12/17 09:44:58;;;;;;;;;;;8.70;99.90;;;;;;4982071;28;19932;-86
2021/12/17 09:47:23;;;;;;;;;;;8.70;99.90;;;;;;4965826;28;19925;-87
2021/12/17 09:49:55;;;;;;;;;;;8.70;99.90;;;;;;4981569;28;20016;-87
2021/12/17 09:52:20;;;;;;;;;;;8.80;99.90;;;;;;4998267;28;19926;-87
2021/12/17 09:54:46;;;;;;;;;;;8.80;99.90;;;;;;4966159;28;20282;-87
2021/12/17 09:57:11;;;;;;;;;;;8.80;99.90;;;;;;4981686;28;20035;-86
2021/12/17 09:59:37;;;;;;;;;;;8.80;99.90;;;;;;4982080;28;19985;-86
2021/12/17 10:02:03;;;;;;;;;;;8.80;99.90;;;;;;4981457;28;19926;-86
2021/12/17 10:04:29;;;;;;;;;;;8.80;99.90;;;;;;4997858;28;19929;-87
2021/12/17 10:07:13;;;;;;;;;;;8.90;99.90;;;;;;4981402;28;20297;-86
2021/12/17 10:09:44;;;;;;;;;;;8.90;99.90;;;;;;5015490;28;20341;-87
2021/12/17 10:12:10;;;;;;;;;;;8.90;99.90;;;;;;4997387;28;19926;-87
2021/12/17 10:14:35;;;;;;;;;;;8.90;99.90;;;;;;4965037;28;20392;-87
2021/12/17 10:17:08;;;;;;;;;;;8.90;99.90;;;;;;4997498;28;19935;-86
2021/12/17 10:20:03;;;;;;;;;;;9.00;99.90;;;;;;4981697;28;19925;-87
2021/12/17 10:22:31;;;;;;;;;;;9.00;99.90;;;;;;4980859;28;20369;-87
2021/12/17 10:25:04;;;;;;;;;;;9.10;99.90;;;;;;4997911;28;19979;-87
2021/12/17 10:27:34;;;;;;;;;;;9.10;99.90;;;;;;4981576;28;19929;-87
2021/12/17 10:30:07;;;;;;;;;;;9.10;99.90;;;;;;4964778;28;20078;-85
2021/12/17 10:32:32;;;;;;;;;;;9.10;99.90;;;;;;4997664;28;19926;-86
2021/12/17 10:35:16;;;;;;;;;;;9.10;99.90;;;;;;4997520;28;19976;-87
2021/12/17 10:37:43;;;;;;;;;;;9.10;99.90;;;;;;4981103;28;20397;-87
2021/12/17 10:40:15;;;;;;;;;;;9.10;99.90;;;;;;4981052;28;19933;-87
2021/12/17 10:42:48;;;;;;;;;;;9.20;99.90;;;;;;4997238;28;20378;-87
2021/12/17 10:45:23;;;;;;;;;;;9.20;99.90;;;;;;4965855;28;19976;-87
2021/12/17 10:48:01;;;;;;;;;;;9.20;99.90;;;;;;4997432;28;19925;-87
2021/12/17 10:50:27;;;;;;;;;;;9.20;99.90;;;;;;4998169;28;19926;-87
2021/12/17 10:52:56;;;;;;;;;;;9.20;99.90;;;;;;4980826;28;19926;-87
2021/12/17 10:55:22;;;;;;;;;;;9.30;99.90;;;;;;4996622;28;20098;-87
2021/12/17 10:57:48;;;;;;;;;;;9.30;99.90;;;;;;4981025;28;19932;-87
2021/12/17 11:00:16;;;;;;;;;;;9.30;99.90;;;;;;4980127;28;20289;-87
2021/12/17 11:02:53;;;;;;;;;;;9.30;99.90;;;;;;4996473;28;19936;-87
2021/12/17 11:05:19;;;;;;;;;;;9.30;99.90;;;;;;4996816;28;20429;-87
2021/12/17 11:07:46;;;;;;;;;;;9.40;99.90;;;;;;4996802;28;20392;-87
2021/12/17 11:10:11;;;;;;;;;;;9.40;99.90;;;;;;4964657;28;20347;-87
2021/12/17 11:12:38;;;;;;;;;;;9.40;99.90;;;;;;4980389;28;19925;-87
2021/12/17 11:15:07;;;;;;;;;;;9.40;99.90;;;;;;4980750;28;19926;-87
2021/12/17 11:17:32;;;;;;;;;;;9.40;99.90;;;;;;4980878;28;19976;-87
2021/12/17 11:20:00;;;;;;;;;;;9.40;99.90;;;;;;4980843;28;19964;-87
2021/12/17 11:22:29;;;;;;;;;;;9.40;99.90;;;;;;4980695;28;20125;-87
2021/12/17 11:24:54;;;;;;;;;;;9.50;99.90;;;;;;4996826;28;20377;-87
2021/12/17 11:27:20;;;;;;;;;;;9.50;99.90;;;;;;4980295;28;19933;-87
2021/12/17 11:29:48;;;;;;;;;;;9.50;99.90;;;;;;4980482;28;20039;-86
2021/12/17 11:32:16;;;;;;;;;;;9.50;99.90;;;;;;4964160;28;19926;-86
2021/12/17 11:34:41;;;;;;;;;;;9.50;99.90;;;;;;4997012;28;20297;-87
2021/12/17 11:37:07;;;;;;;;;;;9.50;99.90;;;;;;4980439;28;19926;-86
2021/12/17 11:39:34;;;;;;;;;;;9.50;99.90;;;;;;4980577;28;19979;-86
2021/12/17 11:41:59;;;;;;;;;;;9.50;99.90;;;;;;4964399;28;19932;-87
2021/12/17 11:44:29;;;;;;;;;;;9.40;99.90;;;;;;4979987;28;19930;-87
2021/12/17 11:47:01;;;;;;;;;;;9.50;99.90;;;;;;4980846;28;19972;-87
2021/12/17 11:49:35;;;;;;;;;;;9.50;99.90;;;;;;4979955;28;20286;-87
2021/12/17 11:52:00;;;;;;;;;;;9.50;99.90;;;;;;4981246;28;20020;-87
2021/12/17 11:54:30;;;;;;;;;;;9.50;99.90;;;;;;4979727;28;20376;-86
2021/12/17 11:56:55;;;;;;;;;;;9.50;99.90;;;;;;4963782;28;19925;-87
2021/12/17 11:59:24;;;;;;;;;;;9.50;99.90;;;;;;4963445;28;20016;-87
2021/12/17 12:02:01;;;;;;;;;;;9.50;99.90;;;;;;4980134;28;19925;-87
2021/12/17 12:04:32;;;;;;;;;;;9.60;99.90;;;;;;4995965;28;20369;-87
2021/12/17 12:07:02;;;;;;;;;;;9.60;99.90;;;;;;4979606;28;19926;-86
2021/12/17 12:09:47;;;;;;;;;;;9.60;99.90;;;;;;5012259;28;19926;-87
2021/12/17 12:12:15;;;;;;;;;;;9.60;99.90;;;;;;4995530;28;19926;-86
2021/12/17 12:14:40;;;;;;;;;;;9.60;99.90;;;;;;4980300;28;20362;-86
2021/12/17 12:17:06;;;;;;;;;;;9.60;99.90;;;;;;4979715;28;19968;-86
2021/12/17 12:19:47;;;;;;;;;;;9.70;99.90;;;;;;4979243;28;20012;-86
2021/12/17 12:22:13;;;;;;;;;;;9.60;99.90;;;;;;4963539;28;20286;-86
2021/12/17 12:24:39;;;;;;;;;;;9.60;99.90;;;;;;4979728;28;19933;-86
2021/12/17 12:27:04;;;;;;;;;;;9.60;99.90;;;;;;4963595;28;19926;-86
2021/12/17 12:29:30;;;;;;;;;;;9.60;99.90;;;;;;4979470;28;20028;-86
2021/12/17 12:31:59;;;;;;;;;;;9.60;99.90;;;;;;4995767;28;19926;-86
2021/12/17 12:34:28;;;;;;;;;;;9.60;99.90;;;;;;4979734;28;19929;-86
2021/12/17 12:37:00;;;;;;;;;;;9.60;99.90;;;;;;4980425;28;20297;-87
2021/12/17 12:39:30;;;;;;;;;;;9.50;99.90;;;;;;4994736;28;19925;-87
2021/12/17 12:41:56;;;;;;;;;;;9.50;99.90;;;;;;4963322;28;19925;-86
2021/12/17 12:44:40;;;;;;;;;;;9.60;99.90;;;;;;4995430;28;20325;-86
2021/12/17 12:47:06;;;;;;;;;;;9.50;99.90;;;;;;4979632;28;20016;-86
2021/12/17 12:49:40;;;;;;;;;;;9.50;99.90;;;;;;4979145;28;19936;-87
2021/12/17 12:52:15;;;;;;;;;;;9.50;99.90;;;;;;4995643;28;20285;-86
2021/12/17 12:54:41;;;;;;;;;;;9.60;99.90;;;;;;4995269;28;19925;-86
2021/12/17 12:57:07;;;;;;;;;;;9.60;99.90;;;;;;4979335;28;20294;-87
2021/12/17 12:59:34;;;;;;;;;;;9.60;99.90;;;;;;4979138;28;20283;-85
2021/12/17 13:02:00;;;;;;;;;;;9.50;99.90;;;;;;4963735;28;20277;-86
2021/12/17 13:04:29;;;;;;;;;;;9.60;99.90;;;;;;4963016;28;19925;-86
2021/12/17 13:06:55;;;;;;;;;;;9.60;99.90;;;;;;4978939;28;19933;-86
2021/12/17 13:09:27;;;;;;;;;;;9.60;99.90;;;;;;4995148;28;19926;-85
2021/12/17 13:11:53;;;;;;;;;;;9.60;99.90;;;;;;4963193;28;19925;-87
2021/12/17 13:14:23;;;;;;;;;;;9.50;99.90;;;;;;4979416;28;20321;-88
2021/12/17 13:17:06;;;;;;;;;;;9.60;99.90;;;;;;4980030;28;19926;-88
2021/12/17 13:22:40;;;;;;;;;;;9.60;99.90;;;;;;4981780;28;19929;-87
2021/12/17 13:25:01;;;;;;;;;;;9.60;99.90;;;;;;4998338;28;19936;-90
2021/12/17 13:27:27;;;;;;;;;;;9.50;99.90;;;;;;5004032;28;20008;-90
2021/12/17 13:29:53;;;;;;;;;;;9.60;99.90;;;;;;4998961;28;19983;-91
2021/12/17 13:32:21;;;;;;;;;;;9.50;99.90;;;;;;4966911;28;19926;-91
2021/12/17 13:34:47;;;;;;;;;;;9.50;99.90;;;;;;4967091;28;19925;-91
2021/12/17 13:37:15;;;;;;;;;;;9.50;99.90;;;;;;4967335;28;19926;-92
2021/12/17 13:39:47;;;;;;;;;;;9.50;99.90;;;;;;4966832;28;20380;-92
2021/12/17 13:42:17;;;;;;;;;;;9.50;99.90;;;;;;4983149;28;19932;-91
2021/12/17 13:44:44;;;;;;;;;;;9.40;99.90;;;;;;4983085;28;19926;-91
2021/12/17 13:47:14;;;;;;;;;;;9.40;99.90;;;;;;4983366;28;19980;-92
2021/12/17 13:49:40;;;;;;;;;;;9.40;99.90;;;;;;4966685;28;19926;-88
2021/12/17 13:52:05;;;;;;;;;;;9.40;99.90;;;;;;4966613;28;20321;-90
2021/12/17 13:54:33;;;;;;;;;;;9.40;99.90;;;;;;4965864;28;19929;-87
2021/12/17 13:56:59;;;;;;;;;;;9.40;99.90;;;;;;4982675;28;19932;-88
2021/12/17 13:59:31;;;;;;;;;;;9.40;99.90;;;;;;4984347;28;19925;-94
2021/12/17 14:02:17;;;;;;;;;;;9.40;99.90;;;;;;4966790;28;20378;-93
2021/12/17 14:05:05;;;;;;;;;;;9.40;99.90;;;;;;4997902;28;19972;-95
2021/12/17 14:07:34;;;;;;;;;;;9.40;99.90;;;;;;4986078;28;20444;-90
2021/12/17 14:10:13;;;;;;;;;;;9.50;99.90;;;;;;4966786;28;19940;-94
2021/12/17 14:12:59;;;;;;;;;;;9.30;99.90;;;;;;4982830;28;19926;-94
2021/12/17 14:15:44;;;;;;;;;;;;;;;;;;;;;
2021/12/17 14:18:29;;;;;;;;;;;9.30;99.90;;;;;;5000808;28;19973;-96
2021/12/17 14:21:14;;;;;;;;;;;9.30;99.90;;;;;;4985261;28;19925;-96
2021/12/17 14:23:40;;;;;;;;;;;9.30;99.90;;;;;;4981428;28;19926;-93
2021/12/17 14:26:09;;;;;;;;;;;9.30;99.90;;;;;;4966906;28;19932;-93
2021/12/17 14:28:36;;;;;;;;;;;9.30;99.90;;;;;;4966323;28;20015;-92
2021/12/17 14:31:12;;;;;;;;;;;9.30;99.90;;;;;;4966573;28;19984;-94
2021/12/17 14:33:45;;;;;;;;;;;9.30;99.90;;;;;;4981829;28;19948;-93
2021/12/17 14:36:11;;;;;;;;;;;9.30;99.90;;;;;;4966604;28;20325;-93
2021/12/17 14:38:50;;;;;;;;;;;9.30;99.90;;;;;;4981928;28;19926;-93
2021/12/17 14:41:23;;;;;;;;;;;9.30;99.90;;;;;;4966494;28;20255;-92
2021/12/17 14:43:54;;;;;;;;;;;9.30;99.90;;;;;;4965946;28;19932;-92
2021/12/17 14:46:24;;;;;;;;;;;9.30;99.90;;;;;;4966667;28;20338;-92
2021/12/17 14:57:23;;;;;;;;;;;9.30;99.90;;;;;;4984383;28;20362;-92
2021/12/17 15:02:42;;;;;;;;;;;9.20;99.90;;;;;;4998285;28;19931;-93
2021/12/17 15:05:08;;;;;;;;;;;9.20;99.90;;;;;;4985233;28;19926;-94
2021/12/17 15:07:47;;;;;;;;;;;;;;;;;;;;;
2021/12/17 15:10:18;;;;;;;;;;;9.30;99.90;;;;;;5000702;28;19940;-93
2021/12/17 15:12:49;;;;;;;;;;;9.20;99.90;;;;;;4981540;28;19926;-93
2021/12/17 15:15:28;;;;;;;;;;;9.20;99.90;;;;;;4982150;28;19933;-92
2021/12/17 15:17:57;;;;;;;;;;;9.20;99.90;;;;;;4981349;28;19926;-91
2021/12/17 15:20:26;;;;;;;;;;;9.20;99.90;;;;;;4983352;28;19932;-89
2021/12/17 15:22:59;;;;;;;;;;;9.20;99.90;;;;;;4981287;28;19932;-93
2021/12/17 15:25:35;;;;;;;;;;;9.20;99.90;;;;;;4982841;28;19926;-92
2021/12/17 15:28:00;;;;;;;;;;;9.20;99.90;;;;;;4966178;28;19932;-93
2021/12/17 15:30:28;;;;;;;;;;;9.20;99.90;;;;;;4981322;28;19929;-92
2021/12/17 15:32:54;;;;;;;;;;;9.20;99.90;;;;;;4980558;28;19984;-92
2021/12/17 15:35:22;;;;;;;;;;;9.20;99.90;;;;;;4965036;28;19988;-91
2021/12/17 15:38:08;;;;;;;;;;;;;;;;;;;;;
2021/12/17 15:40:34;;;;;;;;;;;9.10;99.90;;;;;;4982328;28;20020;-90
2021/12/17 15:43:05;;;;;;;;;;;9.20;99.90;;;;;;4980385;28;19929;-91
2021/12/17 15:45:38;;;;;;;;;;;9.10;99.90;;;;;;4981168;28;20370;-90
2021/12/17 15:48:07;;;;;;;;;;;9.20;99.90;;;;;;4980024;28;19925;-91
2021/12/17 15:50:35;;;;;;;;;;;9.10;99.90;;;;;;4980808;28;20345;-91
2021/12/17 15:53:03;;;;;;;;;;;9.20;99.90;;;;;;4964416;28;19926;-95
2021/12/17 15:55:31;;;;;;;;;;;9.10;99.90;;;;;;4981346;28;19956;-93
2021/12/17 15:58:01;;;;;;;;;;;9.10;99.90;;;;;;4980891;28;19925;-90
2021/12/17 16:00:35;;;;;;;;;;;9.10;99.90;;;;;;4964643;28;19929;-91
2021/12/17 16:03:26;;;;;;;;;;;9.10;99.90;;;;;;4965527;28;19925;-92
2021/12/17 16:05:52;;;;;;;;;;;9.10;99.90;;;;;;4964848;28;20017;-91
2021/12/17 16:08:20;;;;;;;;;;;9.10;99.90;;;;;;4980540;28;20012;-90
2021/12/17 16:21:45;;;;;;;;;;;9.10;99.90;;;;;;4982003;28;19925;-92
2021/12/17 16:24:11;;;;;;;;;;;9.10;99.90;;;;;;4981092;28;20413;-93
2021/12/17 16:26:37;;;;;;;;;;;9.10;99.90;;;;;;4980035;28;19925;-90
2021/12/17 16:29:02;;;;;;;;;;;9.10;99.90;;;;;;4980360;28;19925;-85
2021/12/17 16:31:31;;;;;;;;;;;9.10;99.90;;;;;;4995582;28;20024;-87
2021/12/17 16:33:58;;;;;;;;;;;9.10;99.90;;;;;;4979507;28;20368;-88
2021/12/17 16:39:26;;;;;;;;;;;9.10;99.90;;;;;;4985603;28;19972;-87
2021/12/17 16:42:31;;;;;;;;;;;;;;;;;;;;;
2021/12/17 16:45:23;;;;;;;;;;;9.10;99.90;;;;;;4982435;28;19945;-87
2021/12/17 16:47:49;;;;;;;;;;;9.10;99.90;;;;;;4964003;28;19934;-88
2021/12/17 16:50:15;;;;;;;;;;;9.10;99.90;;;;;;4949146;28;19934;-88
2021/12/17 16:52:40;;;;;;;;;;;9.10;99.90;;;;;;4947423;28;19929;-87
2021/12/17 16:55:09;;;;;;;;;;;9.00;99.90;;;;;;4963202;28;19934;-88
2021/12/17 16:57:34;;;;;;;;;;;9.00;99.90;;;;;;4946910;28;20008;-88
2021/12/17 17:00:00;;;;;;;;;;;9.00;99.90;;;;;;4960173;28;20013;-88
2021/12/17 17:02:28;;;;;;;;;;;9.00;99.90;;;;;;4948657;28;19930;-88
2021/12/17 17:05:08;;;;;;;;;;;9.00;99.90;;;;;;4954941;28;19987;-89
2021/12/17 17:07:34;;;;;;;;;;;9.00;99.90;;;;;;4962756;28;20324;-86
2021/12/17 17:10:16;;;;;;;;;;;9.00;99.90;;;;;;4983162;28;20045;-91
2021/12/17 17:12:46;;;;;;;;;;;9.00;99.90;;;;;;4971393;28;19969;-94
2021/12/17 17:15:34;;;;;;;;;;;9.00;99.90;;;;;;4967977;28;19985;-93
2021/12/17 17:18:34;;;;;;;;;;;9.00;99.90;;;;;;4979503;28;19929;-96
2021/12/17 17:21:03;;;;;;;;;;;9.00;99.90;;;;;;4983502;28;20281;-95
2021/12/17 17:23:46;;;;;;;;;;;8.90;99.90;;;;;;4984284;28;20366;-94
2021/12/17 17:26:21;;;;;;;;;;;8.90;99.90;;;;;;4969434;28;19929;-87
2021/12/17 17:29:03;;;;;;;;;;;8.90;99.90;;;;;;4964633;28;19926;-90
2021/12/17 17:32:02;;;;;;;;;;;8.90;99.90;;;;;;4983144;28;19926;-90
2021/12/17 17:34:30;;;;;;;;;;;8.90;99.90;;;;;;4989937;28;19937;-86
2021/12/17 17:36:58;;;;;;;;;;;8.90;99.90;;;;;;4964573;28;19929;-89
2021/12/17 17:42:34;;;;;;;;;;;;;;;;;;;;;
2021/12/17 17:45:12;;;;;;;;;;;8.90;99.90;;;;;;4977339;28;19933;-94
2021/12/17 17:48:06;;;;;;;;;;;8.90;99.90;;;;;;4975690;28;20278;-87
2021/12/17 17:50:37;;;;;;;;;;;9.00;99.90;;;;;;4974450;28;19940;-88
2021/12/17 17:53:24;;;;;;;;;;;8.90;99.90;;;;;;4965221;28;20606;-88
2021/12/17 17:55:49;;;;;;;;;;;8.90;99.90;;;;;;4952557;28;19926;-89
2021/12/17 17:58:20;;;;;;;;;;;8.80;99.90;;;;;;4951357;28;20578;-87
2021/12/17 18:00:46;;;;;;;;;;;8.90;99.90;;;;;;4966394;28;19930;-88
2021/12/17 18:06:02;;;;;;;;;;;8.80;99.90;;;;;;4984195;28;19925;-87
2021/12/17 18:08:39;;;;;;;;;;;8.80;99.90;;;;;;4968116;28;20274;-87
2021/12/17 18:11:06;;;;;;;;;;;8.70;99.90;;;;;;4951328;28;19933;-90
2021/12/17 18:13:44;;;;;;;;;;;;;;;;;;;;;
2021/12/17 18:16:38;;;;;;;;;;;;;;;;;;;;;
2021/12/17 18:19:14;;;;;;;;;;;8.70;99.90;;;;;;4963890;28;20024;-91